Main page
METAR-TAF:

METAR-TAF

Airports :

Essaouira-Mogador Airport

Essaouira, Morocco

latitude: 31-31N, longitude: 009-47W, elevation: 15 m

Current weather observation

The report was made 46 minutes ago, at 13:00 UTC
Wind 10 kt from the West/Southwest
Temperature 21°C
Humidity 64%
Pressure 1009 hPa
Visibility: 7000 m
Few clouds at a height of 1600 ft

METAR: GMMI 031300Z 25010KT 7000 FEW016 21/14 Q1009 NOSIG

Time: 14:46 (13:46 UTC)

Forecast

The report was made 2 hours and 46 minutes ago, at 11:00 UTC
Forecast valid from 03 at 12 UTC to 04 at 18 UTC
Wind 6 kt from the Southwest
Visibility: 5000 m
Becoming
from 03 at 15 UTC to 03 at 18 UTC
Overcast at a height of 1000 ft
Becoming
from 04 at 00 UTC to 04 at 03 UTC
Scattered clouds at a height of 1000 ft

TAF: GMMI 031100Z 0312/0418 22006KT 5000 NSC BECMG 0315/0318 OVC010 BECMG 0400/0403 SCT010

Weather observations and forecasts of more than 4000 airports (METAR and TAF reports).

The available stations are represented by yellow and red dots on the map.

Hover mouse over dot to see the name of the station.

Then click to see weather observations and forecasts.

To change the map : click on the green buttons with a black cross to zoom in, on the green button with a dash to zoom out, or on the green arrows for adjacent maps.


METAR-TAF: